sensor_id;sensor_type;location;lat;lon;timestamp;P1;durP1;ratioP1;P2;durP2;ratioP2
15498;SDS011;7851;52.260;6.030;2022-07-23T00:03:04;4.4;;;3.9;;
15498;SDS011;7851;52.260;6.030;2022-07-23T00:03:09;3.3;;;3;;
15498;SDS011;7851;52.260;6.030;2022-07-23T00:03:09;4.2;;;3.8;;
15498;SDS011;7851;52.260;6.030;2022-07-23T00:03:09;4.8;;;4.1;;
15498;SDS011;7851;52.260;6.030;2022-07-23T00:04:09;3.5;;;2.5;;
15498;SDS011;7851;52.260;6.030;2022-07-23T00:05:10;3.2;;;3;;
15498;SDS011;7851;52.260;6.030;2022-07-23T00:06:09;4.5;;;3;;
15498;SDS011;7851;52.260;6.030;2022-07-23T00:07:09;3.4;;;3.1;;
15498;SDS011;7851;52.260;6.030;2022-07-23T00:08:09;3.5;;;3.2;;
15498;SDS011;7851;52.260;6.030;2022-07-23T00:09:09;6.4;;;3.7;;
15498;SDS011;7851;52.260;6.030;2022-07-23T00:10:09;4.2;;;3.8;;
15498;SDS011;7851;52.260;6.030;2022-07-23T00:11:09;3.7;;;3.4;;
15498;SDS011;7851;52.260;6.030;2022-07-23T00:12:09;3.9;;;3.6;;
15498;SDS011;7851;52.260;6.030;2022-07-23T00:13:09;3.8;;;3.5;;
15498;SDS011;7851;52.260;6.030;2022-07-23T00:14:09;3.9;;;3.6;;
15498;SDS011;7851;52.260;6.030;2022-07-23T00:15:10;5.4;;;4.1;;
15498;SDS011;7851;52.260;6.030;2022-07-23T00:16:10;3.9;;;3.6;;
15498;SDS011;7851;52.260;6.030;2022-07-23T00:17:09;4.9;;;4;;
15498;SDS011;7851;52.260;6.030;2022-07-23T00:18:09;6.3;;;4.1;;
15498;SDS011;7851;52.260;6.030;2022-07-23T00:19:09;4.8;;;4.4;;
15498;SDS011;7851;52.260;6.030;2022-07-23T00:20:10;4.8;;;4.4;;
15498;SDS011;7851;52.260;6.030;2022-07-23T00:21:09;5.9;;;4.9;;
15498;SDS011;7851;52.260;6.030;2022-07-23T00:22:09;4.8;;;4.3;;
15498;SDS011;7851;52.260;6.030;2022-07-23T00:23:09;4.8;;;4.1;;
15498;SDS011;7851;52.260;6.030;2022-07-23T00:24:10;5;;;4.6;;
15498;SDS011;7851;52.260;6.030;2022-07-23T00:25:09;5;;;4.6;;
15498;SDS011;7851;52.260;6.030;2022-07-23T00:26:10;4.2;;;3.9;;
15498;SDS011;7851;52.260;6.030;2022-07-23T00:27:09;4.7;;;4.3;;
15498;SDS011;7851;52.260;6.030;2022-07-23T00:28:09;4.9;;;4.5;;
15498;SDS011;7851;52.260;6.030;2022-07-23T00:29:09;5.1;;;4.3;;
15498;SDS011;7851;52.260;6.030;2022-07-23T00:30:10;4.6;;;4.3;;
15498;SDS011;7851;52.260;6.030;2022-07-23T00:31:09;4.2;;;3.9;;
15498;SDS011;7851;52.260;6.030;2022-07-23T00:32:09;4.2;;;3.9;;
15498;SDS011;7851;52.260;6.030;2022-07-23T00:33:10;4.6;;;3.9;;
15498;SDS011;7851;52.260;6.030;2022-07-23T00:34:09;4;;;3.7;;
15498;SDS011;7851;52.260;6.030;2022-07-23T00:35:09;4;;;3.7;;
15498;SDS011;7851;52.260;6.030;2022-07-23T00:36:09;3.7;;;3.4;;
15498;SDS011;7851;52.260;6.030;2022-07-23T00:37:09;3.6;;;3.4;;
15498;SDS011;7851;52.260;6.030;2022-07-23T00:38:10;3.4;;;3.2;;
15498;SDS011;7851;52.260;6.030;2022-07-23T00:39:09;3.5;;;3.2;;
15498;SDS011;7851;52.260;6.030;2022-07-23T00:40:10;4.9;;;3.3;;
15498;SDS011;7851;52.260;6.030;2022-07-23T00:41:09;4;;;3.7;;
15498;SDS011;7851;52.260;6.030;2022-07-23T00:42:09;3.7;;;3.4;;
15498;SDS011;7851;52.260;6.030;2022-07-23T00:43:10;4.4;;;3.7;;
15498;SDS011;7851;52.260;6.030;2022-07-23T00:44:17;3.6;;;3.2;;
15498;SDS011;7851;52.260;6.030;2022-07-23T00:45:10;4.3;;;3.9;;
15498;SDS011;7851;52.260;6.030;2022-07-23T00:46:09;3.8;;;3.5;;
15498;SDS011;7851;52.260;6.030;2022-07-23T00:47:09;4.6;;;3.7;;
15498;SDS011;7851;52.260;6.030;2022-07-23T00:48:09;3.7;;;3.4;;
15498;SDS011;7851;52.260;6.030;2022-07-23T00:49:09;3.6;;;3.4;;
15498;SDS011;7851;52.260;6.030;2022-07-23T00:50:10;3.9;;;3.6;;
15498;SDS011;7851;52.260;6.030;2022-07-23T00:51:09;5.2;;;3.6;;
15498;SDS011;7851;52.260;6.030;2022-07-23T00:52:09;3.7;;;3.4;;
15498;SDS011;7851;52.260;6.030;2022-07-23T00:53:10;3.9;;;3.6;;
15498;SDS011;7851;52.260;6.030;2022-07-23T00:54:09;3.8;;;3.4;;
15498;SDS011;7851;52.260;6.030;2022-07-23T00:55:10;4.3;;;3.6;;
15498;SDS011;7851;52.260;6.030;2022-07-23T00:56:09;3.4;;;3.1;;
15498;SDS011;7851;52.260;6.030;2022-07-23T00:57:09;2.9;;;2.7;;
15498;SDS011;7851;52.260;6.030;2022-07-23T00:58:09;3;;;2.8;;
15498;SDS011;7851;52.260;6.030;2022-07-23T00:59:10;3.2;;;3;;
15498;SDS011;7851;52.260;6.030;2022-07-23T01:00:11;4;;;2.8;;
15498;SDS011;7851;52.260;6.030;2022-07-23T01:01:10;3.3;;;3.1;;
15498;SDS011;7851;52.260;6.030;2022-07-23T01:02:09;3.9;;;2.9;;
15498;SDS011;7851;52.260;6.030;2022-07-23T01:03:09;3.6;;;3;;
15498;SDS011;7851;52.260;6.030;2022-07-23T01:04:10;2.7;;;2.6;;
15498;SDS011;7851;52.260;6.030;2022-07-23T01:05:10;3;;;2.9;;
15498;SDS011;7851;52.260;6.030;2022-07-23T01:06:09;3;;;2.8;;
15498;SDS011;7851;52.260;6.030;2022-07-23T01:07:09;3.5;;;3.2;;
15498;SDS011;7851;52.260;6.030;2022-07-23T01:08:09;3.3;;;3;;
15498;SDS011;7851;52.260;6.030;2022-07-23T01:09:09;3.2;;;2.9;;
15498;SDS011;7851;52.260;6.030;2022-07-23T01:10:09;3.3;;;3.1;;
15498;SDS011;7851;52.260;6.030;2022-07-23T01:11:09;3;;;2.8;;
15498;SDS011;7851;52.260;6.030;2022-07-23T01:12:09;3;;;2.8;;
15498;SDS011;7851;52.260;6.030;2022-07-23T01:13:10;3.2;;;2.6;;
15498;SDS011;7851;52.260;6.030;2022-07-23T01:14:11;3.1;;;2.8;;
15498;SDS011;7851;52.260;6.030;2022-07-23T01:15:09;3.3;;;2.8;;
15498;SDS011;7851;52.260;6.030;2022-07-23T01:16:09;3.2;;;2.9;;
15498;SDS011;7851;52.260;6.030;2022-07-23T01:17:09;3.2;;;3;;
15498;SDS011;7851;52.260;6.030;2022-07-23T01:18:09;3.3;;;3;;
15498;SDS011;7851;52.260;6.030;2022-07-23T01:19:10;3.3;;;3.1;;
15498;SDS011;7851;52.260;6.030;2022-07-23T01:20:10;3;;;2.8;;
15498;SDS011;7851;52.260;6.030;2022-07-23T01:21:10;3;;;2.8;;
15498;SDS011;7851;52.260;6.030;2022-07-23T01:22:09;3;;;2.8;;
15498;SDS011;7851;52.260;6.030;2022-07-23T01:23:09;2.6;;;2.5;;
15498;SDS011;7851;52.260;6.030;2022-07-23T01:24:10;3;;;2.7;;
15498;SDS011;7851;52.260;6.030;2022-07-23T01:25:09;3;;;2.8;;
15498;SDS011;7851;52.260;6.030;2022-07-23T01:26:09;2.8;;;2.6;;
15498;SDS011;7851;52.260;6.030;2022-07-23T01:27:09;2.4;;;2.2;;
15498;SDS011;7851;52.260;6.030;2022-07-23T01:28:09;2.8;;;2.5;;
15498;SDS011;7851;52.260;6.030;2022-07-23T01:29:09;2.8;;;2.6;;
15498;SDS011;7851;52.260;6.030;2022-07-23T01:30:10;3;;;2.7;;
15498;SDS011;7851;52.260;6.030;2022-07-23T01:31:09;3.2;;;2.8;;
15498;SDS011;7851;52.260;6.030;2022-07-23T01:32:09;2.6;;;2.5;;
15498;SDS011;7851;52.260;6.030;2022-07-23T01:33:09;2.8;;;2.6;;
15498;SDS011;7851;52.260;6.030;2022-07-23T01:34:10;2.7;;;2.5;;
15498;SDS011;7851;52.260;6.030;2022-07-23T01:35:10;3.1;;;2.8;;
15498;SDS011;7851;52.260;6.030;2022-07-23T01:36:10;2.3;;;2.2;;
15498;SDS011;7851;52.260;6.030;2022-07-23T01:37:09;2.1;;;2;;
15498;SDS011;7851;52.260;6.030;2022-07-23T01:38:09;2.2;;;2.1;;
15498;SDS011;7851;52.260;6.030;2022-07-23T01:39:09;2.4;;;2.2;;
15498;SDS011;7851;52.260;6.030;2022-07-23T01:40:10;2.1;;;2;;
15498;SDS011;7851;52.260;6.030;2022-07-23T01:41:09;2.5;;;2.3;;
15498;SDS011;7851;52.260;6.030;2022-07-23T01:42:09;2.3;;;2.2;;
15498;SDS011;7851;52.260;6.030;2022-07-23T01:43:09;2.7;;;2.5;;
15498;SDS011;7851;52.260;6.030;2022-07-23T01:44:09;2.7;;;2.5;;
15498;SDS011;7851;52.260;6.030;2022-07-23T01:45:10;2.5;;;2.3;;
15498;SDS011;7851;52.260;6.030;2022-07-23T01:46:10;2.8;;;2.6;;
15498;SDS011;7851;52.260;6.030;2022-07-23T01:47:09;2.4;;;2.3;;
15498;SDS011;7851;52.260;6.030;2022-07-23T01:48:10;2.4;;;2.2;;
15498;SDS011;7851;52.260;6.030;2022-07-23T01:49:09;2.5;;;2.4;;
15498;SDS011;7851;52.260;6.030;2022-07-23T01:50:10;2.8;;;2.5;;
15498;SDS011;7851;52.260;6.030;2022-07-23T01:51:09;2.9;;;2.7;;
15498;SDS011;7851;52.260;6.030;2022-07-23T01:52:09;2.8;;;2.6;;
15498;SDS011;7851;52.260;6.030;2022-07-23T01:53:09;2.4;;;2.3;;
15498;SDS011;7851;52.260;6.030;2022-07-23T01:54:09;2.5;;;2.4;;
15498;SDS011;7851;52.260;6.030;2022-07-23T01:55:10;2.7;;;2.5;;
15498;SDS011;7851;52.260;6.030;2022-07-23T01:56:09;2.3;;;2.2;;
15498;SDS011;7851;52.260;6.030;2022-07-23T01:57:09;2.6;;;2.4;;
15498;SDS011;7851;52.260;6.030;2022-07-23T01:58:09;2.3;;;2.2;;
15498;SDS011;7851;52.260;6.030;2022-07-23T01:59:09;2.7;;;2.5;;
15498;SDS011;7851;52.260;6.030;2022-07-23T02:00:10;2.4;;;2.3;;
15498;SDS011;7851;52.260;6.030;2022-07-23T02:01:09;2.2;;;2.1;;
15498;SDS011;7851;52.260;6.030;2022-07-23T02:02:09;2;;;1.9;;
15498;SDS011;7851;52.260;6.030;2022-07-23T02:03:09;2.4;;;2.2;;
15498;SDS011;7851;52.260;6.030;2022-07-23T02:04:09;2.1;;;2;;
15498;SDS011;7851;52.260;6.030;2022-07-23T02:05:09;2.1;;;1.9;;
15498;SDS011;7851;52.260;6.030;2022-07-23T02:06:09;2.1;;;1.7;;
15498;SDS011;7851;52.260;6.030;2022-07-23T02:07:09;1.9;;;1.8;;
15498;SDS011;7851;52.260;6.030;2022-07-23T02:08:09;1.7;;;1.7;;
15498;SDS011;7851;52.260;6.030;2022-07-23T02:09:10;2.4;;;2.2;;
15498;SDS011;7851;52.260;6.030;2022-07-23T02:10:10;2;;;1.9;;
15498;SDS011;7851;52.260;6.030;2022-07-23T02:11:09;2;;;1.9;;
15498;SDS011;7851;52.260;6.030;2022-07-23T02:12:09;2.2;;;1.6;;
15498;SDS011;7851;52.260;6.030;2022-07-23T02:13:09;2.3;;;2.2;;
15498;SDS011;7851;52.260;6.030;2022-07-23T02:14:09;1.9;;;1.8;;
15498;SDS011;7851;52.260;6.030;2022-07-23T02:15:09;2.5;;;2.3;;
15498;SDS011;7851;52.260;6.030;2022-07-23T02:16:09;2.5;;;2.4;;
15498;SDS011;7851;52.260;6.030;2022-07-23T02:17:09;2.7;;;2.5;;
15498;SDS011;7851;52.260;6.030;2022-07-23T02:18:09;2.5;;;2.3;;
15498;SDS011;7851;52.260;6.030;2022-07-23T02:19:09;2.3;;;2.1;;
15498;SDS011;7851;52.260;6.030;2022-07-23T02:20:10;2.2;;;2.1;;
15498;SDS011;7851;52.260;6.030;2022-07-23T02:21:09;2.1;;;2;;
15498;SDS011;7851;52.260;6.030;2022-07-23T02:22:09;1.6;;;1.6;;
15498;SDS011;7851;52.260;6.030;2022-07-23T02:23:09;1.9;;;1.8;;
15498;SDS011;7851;52.260;6.030;2022-07-23T02:24:09;1.8;;;1.6;;
15498;SDS011;7851;52.260;6.030;2022-07-23T02:25:09;2.5;;;1.8;;
15498;SDS011;7851;52.260;6.030;2022-07-23T02:26:09;5.2;;;1.7;;
15498;SDS011;7851;52.260;6.030;2022-07-23T02:27:09;2.1;;;1.9;;
15498;SDS011;7851;52.260;6.030;2022-07-23T02:28:09;1.5;;;1.5;;
15498;SDS011;7851;52.260;6.030;2022-07-23T02:29:09;1.9;;;1.8;;
15498;SDS011;7851;52.260;6.030;2022-07-23T02:30:10;1.6;;;1.5;;
15498;SDS011;7851;52.260;6.030;2022-07-23T02:31:09;1.7;;;1.6;;
15498;SDS011;7851;52.260;6.030;2022-07-23T02:32:09;1.4;;;1.4;;
15498;SDS011;7851;52.260;6.030;2022-07-23T02:33:09;1.6;;;1.5;;
15498;SDS011;7851;52.260;6.030;2022-07-23T02:34:09;1.8;;;1.8;;
15498;SDS011;7851;52.260;6.030;2022-07-23T02:35:09;3.1;;;1.7;;
15498;SDS011;7851;52.260;6.030;2022-07-23T02:36:09;1.7;;;1.7;;
15498;SDS011;7851;52.260;6.030;2022-07-23T02:37:09;1.7;;;1.6;;
15498;SDS011;7851;52.260;6.030;2022-07-23T02:38:09;2;;;1.9;;
15498;SDS011;7851;52.260;6.030;2022-07-23T02:39:09;1.7;;;1.7;;
15498;SDS011;7851;52.260;6.030;2022-07-23T02:40:10;2;;;1.9;;
15498;SDS011;7851;52.260;6.030;2022-07-23T02:41:09;2;;;1.9;;
15498;SDS011;7851;52.260;6.030;2022-07-23T02:42:09;1.9;;;1.8;;
15498;SDS011;7851;52.260;6.030;2022-07-23T02:43:09;1.9;;;1.8;;
15498;SDS011;7851;52.260;6.030;2022-07-23T02:44:09;1.8;;;1.7;;
15498;SDS011;7851;52.260;6.030;2022-07-23T02:45:10;2.1;;;2;;
15498;SDS011;7851;52.260;6.030;2022-07-23T02:46:09;2.1;;;1.8;;
15498;SDS011;7851;52.260;6.030;2022-07-23T02:47:09;2.2;;;2.1;;
15498;SDS011;7851;52.260;6.030;2022-07-23T02:48:09;2.2;;;2;;
15498;SDS011;7851;52.260;6.030;2022-07-23T02:49:09;2.2;;;2.1;;
15498;SDS011;7851;52.260;6.030;2022-07-23T02:50:09;2.2;;;2;;
15498;SDS011;7851;52.260;6.030;2022-07-23T02:51:09;2.1;;;2;;
15498;SDS011;7851;52.260;6.030;2022-07-23T02:52:09;1.9;;;1.8;;
15498;SDS011;7851;52.260;6.030;2022-07-23T02:53:09;1.6;;;1.6;;
15498;SDS011;7851;52.260;6.030;2022-07-23T02:54:09;2.2;;;2.1;;
15498;SDS011;7851;52.260;6.030;2022-07-23T02:55:09;2.1;;;2;;
15498;SDS011;7851;52.260;6.030;2022-07-23T02:56:09;1.8;;;1.7;;
15498;SDS011;7851;52.260;6.030;2022-07-23T02:57:09;1.8;;;1.7;;
15498;SDS011;7851;52.260;6.030;2022-07-23T02:58:09;1.6;;;1.6;;
15498;SDS011;7851;52.260;6.030;2022-07-23T02:59:09;2;;;1.9;;
15498;SDS011;7851;52.260;6.030;2022-07-23T03:00:10;1.6;;;1.5;;
15498;SDS011;7851;52.260;6.030;2022-07-23T03:01:09;1.7;;;1.6;;
15498;SDS011;7851;52.260;6.030;2022-07-23T03:02:09;1.4;;;1.4;;
15498;SDS011;7851;52.260;6.030;2022-07-23T03:03:09;1.7;;;1.6;;
15498;SDS011;7851;52.260;6.030;2022-07-23T03:04:09;1.2;;;1.2;;
15498;SDS011;7851;52.260;6.030;2022-07-23T03:05:09;1.2;;;1.2;;
15498;SDS011;7851;52.260;6.030;2022-07-23T03:06:09;1.4;;;1.4;;
15498;SDS011;7851;52.260;6.030;2022-07-23T03:07:09;1.7;;;1.6;;
15498;SDS011;7851;52.260;6.030;2022-07-23T03:08:09;1.6;;;1.6;;
15498;SDS011;7851;52.260;6.030;2022-07-23T03:09:09;1.9;;;1.8;;
15498;SDS011;7851;52.260;6.030;2022-07-23T03:10:09;1.8;;;1.6;;
15498;SDS011;7851;52.260;6.030;2022-07-23T03:11:09;2.4;;;1.6;;
15498;SDS011;7851;52.260;6.030;2022-07-23T03:12:09;1.2;;;1.2;;
15498;SDS011;7851;52.260;6.030;2022-07-23T03:13:09;1.8;;;1.7;;
15498;SDS011;7851;52.260;6.030;2022-07-23T03:14:09;1.5;;;1.4;;
15498;SDS011;7851;52.260;6.030;2022-07-23T03:15:09;1.5;;;1.4;;
15498;SDS011;7851;52.260;6.030;2022-07-23T03:16:09;1.6;;;1.3;;
15498;SDS011;7851;52.260;6.030;2022-07-23T03:17:09;2.3;;;1.7;;
15498;SDS011;7851;52.260;6.030;2022-07-23T03:18:09;1.5;;;1.4;;
15498;SDS011;7851;52.260;6.030;2022-07-23T03:19:09;1.3;;;1.3;;
15498;SDS011;7851;52.260;6.030;2022-07-23T03:20:09;1.2;;;1.2;;
15498;SDS011;7851;52.260;6.030;2022-07-23T03:21:09;1.7;;;1.6;;
15498;SDS011;7851;52.260;6.030;2022-07-23T03:22:09;1.6;;;1.5;;
15498;SDS011;7851;52.260;6.030;2022-07-23T03:23:09;1.6;;;1.5;;
15498;SDS011;7851;52.260;6.030;2022-07-23T03:24:09;3;;;1.3;;
15498;SDS011;7851;52.260;6.030;2022-07-23T03:25:09;2.4;;;1.6;;
15498;SDS011;7851;52.260;6.030;2022-07-23T03:26:09;1.6;;;1.5;;
15498;SDS011;7851;52.260;6.030;2022-07-23T03:27:09;1.4;;;1.4;;
15498;SDS011;7851;52.260;6.030;2022-07-23T03:28:09;2.1;;;2;;
15498;SDS011;7851;52.260;6.030;2022-07-23T03:29:09;2;;;1.9;;
15498;SDS011;7851;52.260;6.030;2022-07-23T03:30:10;2.1;;;2;;
15498;SDS011;7851;52.260;6.030;2022-07-23T03:31:09;2;;;1.9;;
15498;SDS011;7851;52.260;6.030;2022-07-23T03:32:09;1.9;;;1.8;;
15498;SDS011;7851;52.260;6.030;2022-07-23T03:33:09;1.7;;;1.6;;
15498;SDS011;7851;52.260;6.030;2022-07-23T03:34:09;1.6;;;1.6;;
15498;SDS011;7851;52.260;6.030;2022-07-23T03:35:09;1.5;;;1.4;;
15498;SDS011;7851;52.260;6.030;2022-07-23T03:36:09;1.7;;;1.6;;
15498;SDS011;7851;52.260;6.030;2022-07-23T03:37:10;1.5;;;1.5;;
15498;SDS011;7851;52.260;6.030;2022-07-23T03:38:09;1.8;;;1.7;;
15498;SDS011;7851;52.260;6.030;2022-07-23T03:39:09;1.8;;;1.7;;
15498;SDS011;7851;52.260;6.030;2022-07-23T03:40:10;1.6;;;1.6;;
15498;SDS011;7851;52.260;6.030;2022-07-23T03:41:09;2.8;;;2.2;;
15498;SDS011;7851;52.260;6.030;2022-07-23T03:42:10;1.5;;;1.4;;
15498;SDS011;7851;52.260;6.030;2022-07-23T03:43:09;1.8;;;1.5;;
15498;SDS011;7851;52.260;6.030;2022-07-23T03:44:09;1.6;;;1.5;;
15498;SDS011;7851;52.260;6.030;2022-07-23T03:45:10;2;;;1.7;;
15498;SDS011;7851;52.260;6.030;2022-07-23T03:46:09;1.5;;;1.4;;
15498;SDS011;7851;52.260;6.030;2022-07-23T03:47:09;1.3;;;1.3;;
15498;SDS011;7851;52.260;6.030;2022-07-23T03:48:09;1.7;;;1.6;;
15498;SDS011;7851;52.260;6.030;2022-07-23T03:49:09;1.9;;;1.8;;
15498;SDS011;7851;52.260;6.030;2022-07-23T03:50:10;1.6;;;1.5;;
15498;SDS011;7851;52.260;6.030;2022-07-23T03:51:10;1.9;;;1.8;;
15498;SDS011;7851;52.260;6.030;2022-07-23T03:52:09;2.6;;;2.1;;
15498;SDS011;7851;52.260;6.030;2022-07-23T03:53:09;1.8;;;1.7;;
15498;SDS011;7851;52.260;6.030;2022-07-23T03:54:09;1.6;;;1.6;;
15498;SDS011;7851;52.260;6.030;2022-07-23T03:55:09;2.1;;;1.9;;
15498;SDS011;7851;52.260;6.030;2022-07-23T03:56:09;2;;;1.9;;
15498;SDS011;7851;52.260;6.030;2022-07-23T03:57:09;2.2;;;2;;
15498;SDS011;7851;52.260;6.030;2022-07-23T03:58:09;2.1;;;1.8;;
15498;SDS011;7851;52.260;6.030;2022-07-23T03:59:09;2;;;1.9;;
15498;SDS011;7851;52.260;6.030;2022-07-23T04:00:10;4.4;;;2.3;;
15498;SDS011;7851;52.260;6.030;2022-07-23T04:01:10;2.3;;;2.1;;
15498;SDS011;7851;52.260;6.030;2022-07-23T04:02:09;2;;;1.9;;
15498;SDS011;7851;52.260;6.030;2022-07-23T04:03:10;2.5;;;2.3;;
15498;SDS011;7851;52.260;6.030;2022-07-23T04:04:09;3.6;;;2.6;;
15498;SDS011;7851;52.260;6.030;2022-07-23T04:05:09;2.5;;;2.3;;
15498;SDS011;7851;52.260;6.030;2022-07-23T04:06:09;2.5;;;2.3;;
15498;SDS011;7851;52.260;6.030;2022-07-23T04:07:09;2.2;;;2;;
15498;SDS011;7851;52.260;6.030;2022-07-23T04:08:09;2.1;;;1.9;;
15498;SDS011;7851;52.260;6.030;2022-07-23T04:09:09;2.3;;;2.1;;
15498;SDS011;7851;52.260;6.030;2022-07-23T04:10:09;2.4;;;2.2;;
15498;SDS011;7851;52.260;6.030;2022-07-23T04:11:09;2.5;;;2.3;;
15498;SDS011;7851;52.260;6.030;2022-07-23T04:12:09;2.4;;;2.3;;
15498;SDS011;7851;52.260;6.030;2022-07-23T04:13:09;2.8;;;2.6;;
15498;SDS011;7851;52.260;6.030;2022-07-23T04:14:09;2.7;;;2.4;;
15498;SDS011;7851;52.260;6.030;2022-07-23T04:15:09;2;;;1.9;;
15498;SDS011;7851;52.260;6.030;2022-07-23T04:16:09;2.4;;;2.1;;
15498;SDS011;7851;52.260;6.030;2022-07-23T04:17:09;1.9;;;1.8;;
15498;SDS011;7851;52.260;6.030;2022-07-23T04:18:09;2.3;;;2.1;;
15498;SDS011;7851;52.260;6.030;2022-07-23T04:19:09;2.2;;;2.1;;
15498;SDS011;7851;52.260;6.030;2022-07-23T04:20:10;2.2;;;2.1;;
15498;SDS011;7851;52.260;6.030;2022-07-23T04:21:09;3.3;;;2.1;;
15498;SDS011;7851;52.260;6.030;2022-07-23T04:22:10;2.2;;;2.1;;
15498;SDS011;7851;52.260;6.030;2022-07-23T04:23:09;3;;;2.8;;
15498;SDS011;7851;52.260;6.030;2022-07-23T04:24:09;3.1;;;2.8;;
15498;SDS011;7851;52.260;6.030;2022-07-23T04:25:09;3.2;;;3;;
15498;SDS011;7851;52.260;6.030;2022-07-23T04:26:09;3.7;;;3;;
15498;SDS011;7851;52.260;6.030;2022-07-23T04:27:09;2.3;;;2.2;;
15498;SDS011;7851;52.260;6.030;2022-07-23T04:28:09;3.1;;;2.8;;
15498;SDS011;7851;52.260;6.030;2022-07-23T04:29:09;3.7;;;2.9;;
15498;SDS011;7851;52.260;6.030;2022-07-23T04:30:10;2.9;;;2.7;;
15498;SDS011;7851;52.260;6.030;2022-07-23T04:31:09;2.6;;;2.5;;
15498;SDS011;7851;52.260;6.030;2022-07-23T04:32:09;2.6;;;2.4;;
15498;SDS011;7851;52.260;6.030;2022-07-23T04:33:09;2.9;;;2.7;;
15498;SDS011;7851;52.260;6.030;2022-07-23T04:34:09;2.5;;;2.3;;
15498;SDS011;7851;52.260;6.030;2022-07-23T04:35:09;3.1;;;2.9;;
15498;SDS011;7851;52.260;6.030;2022-07-23T04:36:09;3;;;2.6;;
15498;SDS011;7851;52.260;6.030;2022-07-23T04:37:09;2.8;;;2.4;;
15498;SDS011;7851;52.260;6.030;2022-07-23T04:38:09;2.5;;;2.4;;
15498;SDS011;7851;52.260;6.030;2022-07-23T04:39:09;2.8;;;2.5;;
15498;SDS011;7851;52.260;6.030;2022-07-23T04:40:10;2.5;;;2.3;;
15498;SDS011;7851;52.260;6.030;2022-07-23T04:41:09;3.9;;;2.8;;
15498;SDS011;7851;52.260;6.030;2022-07-23T04:42:09;2.9;;;2.6;;
15498;SDS011;7851;52.260;6.030;2022-07-23T04:43:09;3;;;2.6;;
15498;SDS011;7851;52.260;6.030;2022-07-23T04:44:09;2.8;;;2.6;;
15498;SDS011;7851;52.260;6.030;2022-07-23T04:45:10;3.6;;;2.7;;
15498;SDS011;7851;52.260;6.030;2022-07-23T04:46:09;2.8;;;2.6;;
15498;SDS011;7851;52.260;6.030;2022-07-23T04:47:09;2.7;;;2.5;;
15498;SDS011;7851;52.260;6.030;2022-07-23T04:48:09;3;;;2.8;;
15498;SDS011;7851;52.260;6.030;2022-07-23T04:49:09;3.2;;;3;;
15498;SDS011;7851;52.260;6.030;2022-07-23T04:50:09;4.1;;;2.9;;
15498;SDS011;7851;52.260;6.030;2022-07-23T04:51:09;3.2;;;2.9;;
15498;SDS011;7851;52.260;6.030;2022-07-23T04:52:09;3;;;2.8;;
15498;SDS011;7851;52.260;6.030;2022-07-23T04:53:09;2.9;;;2.7;;
15498;SDS011;7851;52.260;6.030;2022-07-23T04:54:09;3.1;;;2.9;;
15498;SDS011;7851;52.260;6.030;2022-07-23T04:55:10;3.6;;;3.3;;
15498;SDS011;7851;52.260;6.030;2022-07-23T04:56:09;3.9;;;3.2;;
15498;SDS011;7851;52.260;6.030;2022-07-23T04:57:09;4.5;;;3.2;;
15498;SDS011;7851;52.260;6.030;2022-07-23T04:58:09;3.4;;;3.1;;
15498;SDS011;7851;52.260;6.030;2022-07-23T04:59:09;3.7;;;3.4;;
15498;SDS011;7851;52.260;6.030;2022-07-23T05:00:10;3.5;;;3.3;;
15498;SDS011;7851;52.260;6.030;2022-07-23T05:01:09;2.9;;;2.7;;
15498;SDS011;7851;52.260;6.030;2022-07-23T05:02:09;3.5;;;3.2;;
15498;SDS011;7851;52.260;6.030;2022-07-23T05:03:09;4.1;;;3.7;;
15498;SDS011;7851;52.260;6.030;2022-07-23T05:04:09;3.8;;;3.5;;
15498;SDS011;7851;52.260;6.030;2022-07-23T05:05:09;3.9;;;3.5;;
15498;SDS011;7851;52.260;6.030;2022-07-23T05:06:09;3.3;;;3.1;;
15498;SDS011;7851;52.260;6.030;2022-07-23T05:07:09;3.6;;;3.4;;
15498;SDS011;7851;52.260;6.030;2022-07-23T05:08:09;2.9;;;2.7;;
15498;SDS011;7851;52.260;6.030;2022-07-23T05:09:09;3.9;;;3.6;;
15498;SDS011;7851;52.260;6.030;2022-07-23T05:10:09;3.3;;;3.1;;
15498;SDS011;7851;52.260;6.030;2022-07-23T05:11:09;4.2;;;3.8;;
15498;SDS011;7851;52.260;6.030;2022-07-23T05:12:09;5.5;;;3.7;;
15498;SDS011;7851;52.260;6.030;2022-07-23T05:13:09;3.5;;;3.3;;
15498;SDS011;7851;52.260;6.030;2022-07-23T05:14:09;4.5;;;3.9;;
15498;SDS011;7851;52.260;6.030;2022-07-23T05:15:09;4.5;;;4;;
15498;SDS011;7851;52.260;6.030;2022-07-23T05:16:09;4.4;;;3.6;;
15498;SDS011;7851;52.260;6.030;2022-07-23T05:17:09;3.7;;;3.4;;
15498;SDS011;7851;52.260;6.030;2022-07-23T05:18:10;4;;;3.4;;
15498;SDS011;7851;52.260;6.030;2022-07-23T05:19:09;4;;;3.7;;
15498;SDS011;7851;52.260;6.030;2022-07-23T05:20:10;3.9;;;3.6;;
15498;SDS011;7851;52.260;6.030;2022-07-23T05:21:09;4.1;;;3.6;;
15498;SDS011;7851;52.260;6.030;2022-07-23T05:22:09;4.1;;;3.8;;
15498;SDS011;7851;52.260;6.030;2022-07-23T05:23:09;3.6;;;3.3;;
15498;SDS011;7851;52.260;6.030;2022-07-23T05:24:09;3.4;;;3.2;;
15498;SDS011;7851;52.260;6.030;2022-07-23T05:25:09;4;;;3.7;;
15498;SDS011;7851;52.260;6.030;2022-07-23T05:26:09;3.8;;;3.5;;
15498;SDS011;7851;52.260;6.030;2022-07-23T05:27:09;4.6;;;4.1;;
15498;SDS011;7851;52.260;6.030;2022-07-23T05:28:09;4.3;;;4;;
15498;SDS011;7851;52.260;6.030;2022-07-23T05:29:09;4;;;3.7;;
15498;SDS011;7851;52.260;6.030;2022-07-23T05:30:10;4.3;;;3.5;;
15498;SDS011;7851;52.260;6.030;2022-07-23T05:31:09;3.4;;;3.2;;
15498;SDS011;7851;52.260;6.030;2022-07-23T05:32:09;4.1;;;3.6;;
15498;SDS011;7851;52.260;6.030;2022-07-23T05:33:09;3.5;;;3.3;;
15498;SDS011;7851;52.260;6.030;2022-07-23T05:34:09;7.1;;;3.6;;
15498;SDS011;7851;52.260;6.030;2022-07-23T05:35:09;4.5;;;4.1;;
15498;SDS011;7851;52.260;6.030;2022-07-23T05:36:09;6.1;;;4;;
15498;SDS011;7851;52.260;6.030;2022-07-23T05:37:09;4.2;;;3.8;;
15498;SDS011;7851;52.260;6.030;2022-07-23T05:38:09;3.3;;;3.1;;
15498;SDS011;7851;52.260;6.030;2022-07-23T05:39:09;4.3;;;3.6;;
15498;SDS011;7851;52.260;6.030;2022-07-23T05:40:10;3.6;;;3.3;;
15498;SDS011;7851;52.260;6.030;2022-07-23T05:41:09;5.7;;;3.9;;
15498;SDS011;7851;52.260;6.030;2022-07-23T05:42:09;4.5;;;4.1;;
15498;SDS011;7851;52.260;6.030;2022-07-23T05:43:09;8.6;;;7.9;;
15498;SDS011;7851;52.260;6.030;2022-07-23T05:44:09;8.5;;;7.9;;
15498;SDS011;7851;52.260;6.030;2022-07-23T05:45:10;8.9;;;8.3;;
15498;SDS011;7851;52.260;6.030;2022-07-23T05:46:09;8.3;;;7.8;;
15498;SDS011;7851;52.260;6.030;2022-07-23T05:47:09;9;;;8.3;;
15498;SDS011;7851;52.260;6.030;2022-07-23T05:48:09;8.7;;;8.2;;
15498;SDS011;7851;52.260;6.030;2022-07-23T05:49:09;9.8;;;9.1;;
15498;SDS011;7851;52.260;6.030;2022-07-23T05:50:10;8.7;;;8.1;;
15498;SDS011;7851;52.260;6.030;2022-07-23T05:51:09;9;;;8.3;;
15498;SDS011;7851;52.260;6.030;2022-07-23T05:52:09;8.2;;;7.7;;
15498;SDS011;7851;52.260;6.030;2022-07-23T05:53:09;9;;;8.3;;
15498;SDS011;7851;52.260;6.030;2022-07-23T05:54:09;9.7;;;8.9;;
15498;SDS011;7851;52.260;6.030;2022-07-23T05:55:10;9.7;;;9;;
15498;SDS011;7851;52.260;6.030;2022-07-23T05:56:09;9.1;;;8.5;;
15498;SDS011;7851;52.260;6.030;2022-07-23T05:57:09;9;;;8.3;;
15498;SDS011;7851;52.260;6.030;2022-07-23T05:58:09;9;;;8.4;;
15498;SDS011;7851;52.260;6.030;2022-07-23T05:59:09;8.9;;;8.2;;
15498;SDS011;7851;52.260;6.030;2022-07-23T06:00:10;9.5;;;8.7;;
15498;SDS011;7851;52.260;6.030;2022-07-23T06:01:10;9.7;;;9;;
15498;SDS011;7851;52.260;6.030;2022-07-23T06:02:09;10.5;;;9.7;;
15498;SDS011;7851;52.260;6.030;2022-07-23T06:03:09;9.8;;;9.1;;
15498;SDS011;7851;52.260;6.030;2022-07-23T06:04:09;9.3;;;8.5;;
15498;SDS011;7851;52.260;6.030;2022-07-23T06:05:09;9.7;;;9.1;;
15498;SDS011;7851;52.260;6.030;2022-07-23T06:06:09;9.3;;;8.6;;
15498;SDS011;7851;52.260;6.030;2022-07-23T06:07:09;10;;;9.2;;
15498;SDS011;7851;52.260;6.030;2022-07-23T06:08:09;10.6;;;9.6;;
15498;SDS011;7851;52.260;6.030;2022-07-23T06:09:09;12.2;;;11.1;;
15498;SDS011;7851;52.260;6.030;2022-07-23T06:10:09;12.4;;;11.3;;
15498;SDS011;7851;52.260;6.030;2022-07-23T06:11:09;13;;;11.9;;
15498;SDS011;7851;52.260;6.030;2022-07-23T06:12:09;13.2;;;12.2;;
15498;SDS011;7851;52.260;6.030;2022-07-23T06:13:09;13.2;;;11.9;;
15498;SDS011;7851;52.260;6.030;2022-07-23T06:14:09;11.9;;;11;;
15498;SDS011;7851;52.260;6.030;2022-07-23T06:15:10;11.2;;;10.4;;
15498;SDS011;7851;52.260;6.030;2022-07-23T06:16:09;11.1;;;10.2;;
15498;SDS011;7851;52.260;6.030;2022-07-23T06:17:09;11.4;;;10.2;;
15498;SDS011;7851;52.260;6.030;2022-07-23T06:18:09;11.5;;;10.4;;
15498;SDS011;7851;52.260;6.030;2022-07-23T06:19:09;13.2;;;9.7;;
15498;SDS011;7851;52.260;6.030;2022-07-23T06:20:10;10.3;;;9.3;;